createdAt,value
2023-01-15T00:02:18.035Z,55.70
2023-01-15T00:04:45.530Z,54.46
2023-01-15T00:07:12.682Z,56.49
2023-01-15T00:09:39.862Z,55.02
2023-01-15T00:12:07.485Z,55.13
2023-01-15T00:14:36.121Z,53.97
2023-01-15T00:17:03.277Z,59.23
2023-01-15T00:19:30.719Z,54.74
2023-01-15T00:21:58.329Z,56.55
2023-01-15T00:24:44.122Z,59.50
2023-01-15T00:27:31.240Z,59.26
2023-01-15T00:30:01.889Z,60.27
2023-01-15T00:32:30.595Z,58.88
2023-01-15T00:35:00.541Z,60.02
2023-01-15T00:37:28.151Z,59.76
2023-01-15T00:39:55.660Z,56.02
2023-01-15T00:42:22.818Z,56.40
2023-01-15T00:44:50.029Z,57.82
2023-01-15T00:47:17.487Z,59.06
2023-01-15T00:49:44.887Z,57.59
2023-01-15T00:52:12.083Z,59.10
2023-01-15T00:54:40.786Z,56.64
2023-01-15T00:57:08.959Z,56.23
2023-01-15T00:59:36.388Z,56.61
2023-01-15T01:02:04.306Z,58.85
2023-01-15T01:04:31.533Z,57.24
2023-01-15T01:06:58.699Z,57.51
2023-01-15T01:09:26.155Z,56.57
2023-01-15T01:11:53.347Z,59.26
2023-01-15T01:14:20.504Z,58.87
2023-01-15T01:16:47.991Z,58.23
2023-01-15T01:19:19.225Z,59.18
2023-01-15T01:21:46.715Z,57.34
2023-01-15T01:24:19.186Z,58.99
2023-01-15T01:26:46.849Z,57.08
2023-01-15T01:29:15.071Z,62.32
2023-01-15T01:31:42.801Z,62.99
2023-01-15T01:34:10.297Z,59.41
2023-01-15T01:36:38.360Z,59.10
2023-01-15T01:39:05.923Z,58.75
2023-01-15T01:41:33.296Z,59.68
2023-01-15T01:44:05.037Z,57.72
2023-01-15T01:46:35.974Z,59.78
2023-01-15T01:49:13.438Z,57.63
2023-01-15T01:51:41.569Z,58.47
2023-01-15T01:54:09.309Z,58.54
2023-01-15T01:56:37.436Z,60.23
2023-01-15T01:59:05.748Z,61.47
2023-01-15T02:01:33.401Z,59.84
2023-01-15T02:04:00.913Z,57.81
2023-01-15T02:06:28.355Z,56.48
2023-01-15T02:08:55.510Z,56.06
2023-01-15T02:11:23.648Z,54.78
2023-01-15T02:13:56.192Z,59.52
2023-01-15T02:16:32.885Z,57.21
2023-01-15T02:19:01.671Z,58.61
2023-01-15T02:21:47.207Z,59.47
2023-01-15T02:24:22.377Z,58.66
2023-01-15T02:27:16.288Z,58.33
2023-01-15T02:29:52.233Z,57.85
2023-01-15T02:32:30.136Z,57.98
2023-01-15T02:35:00.651Z,58.65
2023-01-15T02:37:29.404Z,59.33
2023-01-15T02:39:57.039Z,58.83
2023-01-15T02:42:24.851Z,62.18
2023-01-15T02:44:53.332Z,58.73
2023-01-15T02:47:22.358Z,59.44
2023-01-15T02:49:49.793Z,57.82
2023-01-15T02:52:19.449Z,60.23
2023-01-15T02:54:47.940Z,59.08
2023-01-15T02:57:15.486Z,61.49
2023-01-15T02:59:46.805Z,61.43
2023-01-15T03:02:15.312Z,58.07
2023-01-15T03:04:54.948Z,62.79
2023-01-15T03:07:24.309Z,63.21
2023-01-15T03:09:52.076Z,64.86
2023-01-15T03:12:24.689Z,63.47
2023-01-15T03:14:58.997Z,61.64
2023-01-15T03:17:35.245Z,60.97
2023-01-15T03:20:05.816Z,59.90
2023-01-15T03:22:34.959Z,58.94
2023-01-15T03:25:21.561Z,58.70
2023-01-15T03:27:49.956Z,60.83
2023-01-15T03:30:19.301Z,57.82
2023-01-15T03:32:46.564Z,59.69
2023-01-15T03:35:32.631Z,62.24
2023-01-15T03:38:00.163Z,59.52
2023-01-15T03:40:28.259Z,59.83
2023-01-15T03:43:17.364Z,59.16
2023-01-15T03:45:45.189Z,57.34
2023-01-15T03:48:20.576Z,57.63
2023-01-15T03:50:48.917Z,61.41
2023-01-15T03:53:16.235Z,62.74
2023-01-15T03:55:52.534Z,64.00
2023-01-15T03:58:22.652Z,61.33
2023-01-15T04:00:51.051Z,63.48
2023-01-15T04:03:19.084Z,61.97
2023-01-15T04:05:47.595Z,59.66
2023-01-15T04:08:17.021Z,61.28
2023-01-15T04:10:53.434Z,60.90
2023-01-15T04:13:20.992Z,60.60
2023-01-15T04:15:48.676Z,63.67
2023-01-15T04:18:16.715Z,62.62
2023-01-15T04:20:44.142Z,61.14
2023-01-15T04:23:11.996Z,60.21
2023-01-15T04:25:39.456Z,59.08
2023-01-15T04:28:06.752Z,61.62
2023-01-15T04:30:34.600Z,61.62
2023-01-15T04:33:02.769Z,58.76
2023-01-15T04:35:30.037Z,59.50
2023-01-15T04:37:57.935Z,59.31
2023-01-15T04:40:43.806Z,60.42
2023-01-15T04:43:31.604Z,64.98
2023-01-15T04:45:59.088Z,64.07
2023-01-15T04:48:26.816Z,61.71
2023-01-15T04:50:54.684Z,59.72
2023-01-15T04:53:21.903Z,62.74
2023-01-15T04:55:49.927Z,62.30
2023-01-15T04:58:17.196Z,60.60
2023-01-15T05:00:44.417Z,61.39
2023-01-15T05:03:11.824Z,63.24
2023-01-15T05:05:38.951Z,63.53
2023-01-15T05:08:06.077Z,64.21
2023-01-15T05:10:33.911Z,63.94
2023-01-15T05:13:01.064Z,61.63
2023-01-15T05:15:28.229Z,61.37
2023-01-15T05:17:56.358Z,64.79
2023-01-15T05:20:23.551Z,63.80
2023-01-15T05:22:50.675Z,63.92
2023-01-15T05:25:18.120Z,61.70
2023-01-15T05:27:45.270Z,60.52
2023-01-15T05:30:12.579Z,62.16
2023-01-15T05:32:40.014Z,60.75
2023-01-15T05:35:07.300Z,61.06
2023-01-15T05:37:34.559Z,62.76
2023-01-15T05:40:04.349Z,66.68
2023-01-15T05:42:31.498Z,67.09
2023-01-15T05:44:58.661Z,67.94
2023-01-15T05:47:26.072Z,67.93
2023-01-15T05:49:53.231Z,66.36
2023-01-15T05:52:20.380Z,65.14
2023-01-15T05:54:49.070Z,66.54
2023-01-15T05:57:16.255Z,67.97
2023-01-15T05:59:43.488Z,68.12
2023-01-15T06:02:10.915Z,66.25
2023-01-15T06:04:38.346Z,66.11
2023-01-15T06:07:05.506Z,69.77
2023-01-15T06:09:32.739Z,66.41
2023-01-15T06:12:00.172Z,65.41
2023-01-15T06:14:27.402Z,67.43
2023-01-15T06:16:54.630Z,65.01
2023-01-15T06:19:22.096Z,64.44
2023-01-15T06:21:49.296Z,66.41
2023-01-15T06:24:18.377Z,65.54
2023-01-15T06:26:45.924Z,63.27
2023-01-15T06:29:17.478Z,65.17
2023-01-15T06:31:44.689Z,64.78
2023-01-15T06:34:12.166Z,62.32
2023-01-15T06:36:39.284Z,64.51
2023-01-15T06:39:06.425Z,63.11
2023-01-15T06:41:52.645Z,60.12
2023-01-15T06:44:38.612Z,62.88
2023-01-15T06:47:20.920Z,59.96
2023-01-15T06:49:48.991Z,59.75
2023-01-15T06:52:16.468Z,61.42
2023-01-15T06:54:43.641Z,58.56
2023-01-15T06:57:10.812Z,58.83
2023-01-15T06:59:38.258Z,58.92
2023-01-15T07:02:05.511Z,58.92
2023-01-15T07:04:32.694Z,57.98
2023-01-15T07:07:00.134Z,58.86
2023-01-15T07:09:27.281Z,59.11
2023-01-15T07:11:54.559Z,58.66
2023-01-15T07:14:22.968Z,57.01
2023-01-15T07:16:50.654Z,58.08
2023-01-15T07:19:18.037Z,57.75
2023-01-15T07:21:45.715Z,56.95
2023-01-15T07:24:13.690Z,56.10
2023-01-15T07:26:41.409Z,55.30
2023-01-15T07:29:08.914Z,56.15
2023-01-15T07:31:36.140Z,56.35
2023-01-15T07:34:07.943Z,58.71
2023-01-15T07:36:35.449Z,59.65
2023-01-15T07:39:06.142Z,61.93
2023-01-15T07:41:51.865Z,58.66
2023-01-15T07:44:39.045Z,58.87
2023-01-15T07:47:43.941Z,63.27
2023-01-15T07:50:15.765Z,62.15
2023-01-15T07:52:43.004Z,62.52
2023-01-15T07:55:12.574Z,62.92
2023-01-15T07:57:40.695Z,64.19
2023-01-15T08:00:15.127Z,63.43
2023-01-15T08:02:42.879Z,65.46
2023-01-15T08:05:11.580Z,66.57
2023-01-15T08:07:40.398Z,67.83
2023-01-15T08:10:08.821Z,65.73
2023-01-15T08:12:57.119Z,64.96
2023-01-15T08:15:25.223Z,69.38
2023-01-15T08:17:52.556Z,66.92
2023-01-15T08:20:21.110Z,68.53
2023-01-15T08:22:48.607Z,68.61
2023-01-15T08:25:16.849Z,72.26
2023-01-15T08:27:44.284Z,70.97
2023-01-15T08:30:13.277Z,68.24
2023-01-15T08:32:40.618Z,67.07
2023-01-15T08:35:08.465Z,67.69
2023-01-15T08:37:35.896Z,67.62
2023-01-15T08:40:03.059Z,66.14
2023-01-15T08:42:30.347Z,68.15
2023-01-15T08:44:57.770Z,68.00
2023-01-15T08:47:24.937Z,67.01
2023-01-15T08:49:52.272Z,67.57
2023-01-15T08:52:19.717Z,65.36
2023-01-15T08:54:46.956Z,63.55
2023-01-15T08:57:14.192Z,65.85
2023-01-15T08:59:45.407Z,67.74
2023-01-15T09:02:13.330Z,67.79
2023-01-15T09:04:40.678Z,66.54
2023-01-15T09:07:08.985Z,68.19
2023-01-15T09:09:36.261Z,64.92
2023-01-15T09:12:06.511Z,64.29
2023-01-15T09:14:55.580Z,63.76
2023-01-15T09:17:21.140Z,62.40
2023-01-15T09:19:48.572Z,64.99
2023-01-15T09:22:15.863Z,66.89
2023-01-15T09:24:43.027Z,67.19
2023-01-15T09:27:13.608Z,65.68
2023-01-15T09:29:40.845Z,66.42
2023-01-15T09:32:09.913Z,68.15
2023-01-15T09:34:37.432Z,65.87
2023-01-15T09:37:04.639Z,65.14
2023-01-15T09:39:34.153Z,65.52
2023-01-15T09:42:12.852Z,64.41
2023-01-15T09:44:58.660Z,64.22
2023-01-15T09:47:26.149Z,64.85
2023-01-15T09:49:58.511Z,67.38
2023-01-15T09:52:35.067Z,63.45
2023-01-15T09:55:13.610Z,64.44
2023-01-15T09:57:41.337Z,64.83
2023-01-15T10:00:13.499Z,66.85
2023-01-15T10:02:45.750Z,65.32
2023-01-15T10:05:23.638Z,64.31
2023-01-15T10:07:56.244Z,64.37
2023-01-15T10:10:25.304Z,63.34
2023-01-15T10:12:54.104Z,66.17
2023-01-15T10:15:23.796Z,63.31
2023-01-15T10:17:53.706Z,62.84
2023-01-15T10:20:23.653Z,62.54
2023-01-15T10:22:51.115Z,61.76
2023-01-15T10:25:19.713Z,62.71
2023-01-15T10:27:48.770Z,60.59
2023-01-15T10:30:37.042Z,62.88
2023-01-15T10:33:06.935Z,65.31
2023-01-15T10:35:56.017Z,64.20
2023-01-15T10:38:33.697Z,64.92
2023-01-15T10:41:25.470Z,62.71
2023-01-15T10:43:54.595Z,64.07
2023-01-15T10:46:32.405Z,63.88
2023-01-15T10:49:00.168Z,62.92
2023-01-15T10:51:33.991Z,62.33
2023-01-15T10:54:20.151Z,60.15
2023-01-15T10:56:51.679Z,57.63
2023-01-15T10:59:22.175Z,61.83
2023-01-15T11:01:53.147Z,63.94
2023-01-15T11:04:21.233Z,62.18
2023-01-15T11:06:50.119Z,61.58
2023-01-15T11:09:22.211Z,59.83
2023-01-15T11:11:59.880Z,60.56
2023-01-15T11:14:53.074Z,59.70
2023-01-15T11:17:39.070Z,60.99
2023-01-15T11:20:15.153Z,60.20
2023-01-15T11:22:44.861Z,56.49
2023-01-15T11:25:12.444Z,58.51
2023-01-15T11:27:40.314Z,60.90
2023-01-15T11:30:24.432Z,61.60
2023-01-15T11:32:54.860Z,62.44
2023-01-15T11:35:22.330Z,61.18
2023-01-15T11:37:49.638Z,60.03
2023-01-15T11:40:21.145Z,57.52
2023-01-15T11:43:07.897Z,59.94
2023-01-15T11:45:54.317Z,60.50
2023-01-15T11:48:41.623Z,60.36
2023-01-15T11:51:15.145Z,59.62
2023-01-15T11:53:42.929Z,59.60
2023-01-15T11:56:10.937Z,58.43
2023-01-15T11:58:42.884Z,58.78
2023-01-15T12:01:12.314Z,57.56
2023-01-15T12:03:39.913Z,56.58
2023-01-15T12:06:12.020Z,58.14
2023-01-15T12:08:39.558Z,59.36
2023-01-15T12:11:25.134Z,56.87
2023-01-15T12:14:02.803Z,57.68
2023-01-15T12:16:40.636Z,57.98
2023-01-15T12:19:20.313Z,55.61
2023-01-15T12:21:57.378Z,57.02
2023-01-15T12:24:34.844Z,55.12
2023-01-15T12:27:02.172Z,55.51
2023-01-15T12:29:32.037Z,57.55
2023-01-15T12:32:02.008Z,56.62
2023-01-15T12:34:37.913Z,55.82
2023-01-15T12:37:06.660Z,55.69
2023-01-15T12:39:45.656Z,55.71
2023-01-15T12:42:32.778Z,57.40
2023-01-15T12:45:04.969Z,57.54
2023-01-15T12:47:39.838Z,54.24
2023-01-15T12:50:07.673Z,52.64
2023-01-15T12:52:36.491Z,52.34
2023-01-15T12:55:14.859Z,53.28
2023-01-15T12:57:44.221Z,53.41
2023-01-15T13:00:18.700Z,54.36
2023-01-15T13:02:56.040Z,54.32
2023-01-15T13:05:30.412Z,55.30
2023-01-15T13:08:00.140Z,54.98
2023-01-15T13:10:28.251Z,55.36
2023-01-15T13:12:55.999Z,55.20
2023-01-15T13:15:25.691Z,56.41
2023-01-15T13:18:09.762Z,54.26
2023-01-15T13:21:03.909Z,53.35
2023-01-15T13:23:50.312Z,53.81
2023-01-15T13:26:24.079Z,54.42
2023-01-15T13:28:53.497Z,53.61
2023-01-15T13:31:21.600Z,53.98
2023-01-15T13:33:50.329Z,55.49
2023-01-15T13:36:28.235Z,53.87
2023-01-15T13:38:57.217Z,54.71
2023-01-15T13:41:44.863Z,54.73
2023-01-15T13:44:16.495Z,53.25
2023-01-15T13:46:43.951Z,52.74
2023-01-15T13:49:17.016Z,51.43
2023-01-15T13:51:47.189Z,51.81
2023-01-15T13:54:19.099Z,50.17
2023-01-15T13:56:46.868Z,51.45
2023-01-15T13:59:40.030Z,49.92
2023-01-15T14:02:34.890Z,50.03
2023-01-15T14:05:20.877Z,51.94
2023-01-15T14:07:48.755Z,50.06
2023-01-15T14:10:20.905Z,49.41
2023-01-15T14:13:07.852Z,48.06
2023-01-15T14:15:44.787Z,51.85
2023-01-15T14:18:32.306Z,50.55
2023-01-15T14:21:06.258Z,52.27
2023-01-15T14:23:57.062Z,50.37
2023-01-15T14:26:27.902Z,51.34
2023-01-15T14:29:13.984Z,52.96
2023-01-15T14:31:42.268Z,52.58
2023-01-15T14:34:10.412Z,50.91
2023-01-15T14:36:45.992Z,50.68
2023-01-15T14:39:34.211Z,51.49
2023-01-15T14:42:39.528Z,51.34
2023-01-15T14:45:13.230Z,51.79
2023-01-15T14:47:47.489Z,52.41
2023-01-15T14:50:22.816Z,52.83
2023-01-15T14:52:51.484Z,53.31
2023-01-15T14:55:19.546Z,50.83
2023-01-15T14:58:14.590Z,51.32
2023-01-15T15:00:43.392Z,51.94
2023-01-15T15:03:21.639Z,51.50
2023-01-15T15:05:49.649Z,52.10
2023-01-15T15:08:18.265Z,50.89
2023-01-15T15:10:47.782Z,52.03
2023-01-15T15:13:20.142Z,51.04
2023-01-15T15:15:57.751Z,51.94
2023-01-15T15:18:33.249Z,51.58
2023-01-15T15:21:27.037Z,50.49
2023-01-15T15:24:13.475Z,50.25
2023-01-15T15:26:41.134Z,50.69
2023-01-15T15:29:09.218Z,52.51
2023-01-15T15:31:37.966Z,51.36
2023-01-15T15:34:06.845Z,49.85
2023-01-15T15:36:37.606Z,50.26
2023-01-15T15:39:33.408Z,53.06
2023-01-15T15:42:20.117Z,52.13
2023-01-15T15:45:10.365Z,51.75
2023-01-15T15:47:57.649Z,51.76
2023-01-15T15:50:26.320Z,49.09
2023-01-15T15:52:58.544Z,49.72
2023-01-15T15:55:28.616Z,48.91
2023-01-15T15:57:57.641Z,49.35
2023-01-15T16:00:30.436Z,51.38
2023-01-15T16:03:00.578Z,53.54
2023-01-15T16:05:31.749Z,50.53
2023-01-15T16:08:29.293Z,50.98
2023-01-15T16:10:58.934Z,51.54
2023-01-15T16:13:31.261Z,50.13
2023-01-15T16:16:00.102Z,50.76
2023-01-15T16:18:29.840Z,48.57
2023-01-15T16:20:57.812Z,48.44
2023-01-15T16:23:27.797Z,48.91
2023-01-15T16:26:08.483Z,48.25
2023-01-15T16:28:37.968Z,48.26
2023-01-15T16:31:07.340Z,47.94
2023-01-15T16:33:35.511Z,48.57
2023-01-15T16:36:05.141Z,52.58
2023-01-15T16:38:33.962Z,52.10
2023-01-15T16:41:02.336Z,50.48
2023-01-15T16:43:30.325Z,48.86
2023-01-15T16:46:00.603Z,47.98
2023-01-15T16:48:30.429Z,48.90
2023-01-15T16:51:00.350Z,51.61
2023-01-15T16:53:33.112Z,50.03
2023-01-15T16:56:03.588Z,50.59
2023-01-15T16:58:41.505Z,53.49
2023-01-15T17:01:43.025Z,51.91
2023-01-15T17:04:25.152Z,51.03
2023-01-15T17:06:57.179Z,54.47
2023-01-15T17:09:26.968Z,55.15
2023-01-15T17:11:57.865Z,54.76
2023-01-15T17:14:27.537Z,55.26
2023-01-15T17:17:15.517Z,54.84
2023-01-15T17:19:46.628Z,55.00
2023-01-15T17:22:24.009Z,52.48
2023-01-15T17:24:53.325Z,52.85
2023-01-15T17:27:23.626Z,52.69
2023-01-15T17:29:52.013Z,52.00
2023-01-15T17:32:33.355Z,53.13
2023-01-15T17:35:01.571Z,53.18
2023-01-15T17:37:29.720Z,52.50
2023-01-15T17:39:58.323Z,51.22
2023-01-15T17:42:26.792Z,54.96
2023-01-15T17:44:55.920Z,53.50
2023-01-15T17:47:23.954Z,51.30
2023-01-15T17:49:54.032Z,51.08
2023-01-15T17:52:22.706Z,50.14
2023-01-15T17:55:09.677Z,50.50
2023-01-15T17:57:56.981Z,48.76
2023-01-15T18:00:44.225Z,50.12
2023-01-15T18:03:36.044Z,49.42
2023-01-15T18:06:05.872Z,51.62
2023-01-15T18:08:35.123Z,51.29
2023-01-15T18:11:03.706Z,51.32
2023-01-15T18:13:34.008Z,52.83
2023-01-15T18:16:03.131Z,51.14
2023-01-15T18:18:31.812Z,50.25
2023-01-15T18:21:02.495Z,49.14
2023-01-15T18:23:33.350Z,52.26
2023-01-15T18:26:06.002Z,49.36
2023-01-15T18:28:36.540Z,51.22
2023-01-15T18:31:05.194Z,50.68
2023-01-15T18:33:33.255Z,51.36
2023-01-15T18:36:08.940Z,49.89
2023-01-15T18:38:37.857Z,49.22
2023-01-15T18:41:09.484Z,48.79
2023-01-15T18:43:56.413Z,47.87
2023-01-15T18:46:44.850Z,47.11
2023-01-15T18:49:14.862Z,47.31
2023-01-15T18:51:43.786Z,48.83
2023-01-15T18:54:13.955Z,47.45
2023-01-15T18:56:43.378Z,46.88
2023-01-15T18:59:14.665Z,46.47
2023-01-15T19:01:42.854Z,46.12
2023-01-15T19:04:13.674Z,45.75
2023-01-15T19:06:42.224Z,46.39
2023-01-15T19:09:17.284Z,46.19
2023-01-15T19:11:49.372Z,46.43
2023-01-15T19:14:35.950Z,45.90
2023-01-15T19:17:22.835Z,45.50
2023-01-15T19:19:52.632Z,46.00
2023-01-15T19:22:39.754Z,45.69
2023-01-15T19:25:09.534Z,45.41
2023-01-15T19:27:40.955Z,44.99
2023-01-15T19:30:09.628Z,45.06
2023-01-15T19:32:38.859Z,44.93
2023-01-15T19:35:07.185Z,46.35
2023-01-15T19:37:41.581Z,45.86
2023-01-15T19:40:32.083Z,44.96
2023-01-15T19:43:19.858Z,44.99
2023-01-15T19:46:15.017Z,45.80
2023-01-15T19:49:01.619Z,45.49
2023-01-15T19:51:48.957Z,45.17
2023-01-15T19:54:36.927Z,45.29
2023-01-15T19:57:06.612Z,45.44
2023-01-15T19:59:35.147Z,44.95
2023-01-15T20:02:04.694Z,45.16
2023-01-15T20:04:33.481Z,45.22
2023-01-15T20:07:02.166Z,45.22
2023-01-15T20:09:30.755Z,44.64
2023-01-15T20:12:19.134Z,44.72
2023-01-15T20:14:47.448Z,44.85
2023-01-15T20:17:19.489Z,44.44
2023-01-15T20:19:47.978Z,45.30
2023-01-15T20:22:17.409Z,44.84
2023-01-15T20:24:46.169Z,44.69
2023-01-15T20:27:15.067Z,44.96
2023-01-15T20:29:46.137Z,45.58
2023-01-15T20:32:14.746Z,44.71
2023-01-15T20:34:43.748Z,45.18
2023-01-15T20:37:11.370Z,45.51
2023-01-15T20:39:40.744Z,45.48
2023-01-15T20:42:29.093Z,45.24
2023-01-15T20:44:57.559Z,46.01
2023-01-15T20:47:46.354Z,45.42
2023-01-15T20:50:15.900Z,45.91
2023-01-15T20:52:45.602Z,45.98
2023-01-15T20:55:14.314Z,45.11
2023-01-15T20:57:43.968Z,45.13
2023-01-15T21:00:14.431Z,44.81
2023-01-15T21:02:42.709Z,44.79
2023-01-15T21:05:10.623Z,44.43
2023-01-15T21:07:39.912Z,44.65
2023-01-15T21:10:09.615Z,44.10
2023-01-15T21:12:37.497Z,44.02
2023-01-15T21:15:07.080Z,44.09
2023-01-15T21:17:34.756Z,44.13
2023-01-15T21:20:03.780Z,44.12
2023-01-15T21:22:32.117Z,44.04
2023-01-15T21:24:59.579Z,44.90
2023-01-15T21:27:28.393Z,44.72
2023-01-15T21:29:59.050Z,44.35
2023-01-15T21:32:26.894Z,44.25
2023-01-15T21:34:54.334Z,44.40
2023-01-15T21:37:22.406Z,43.75
2023-01-15T21:39:50.228Z,43.97
2023-01-15T21:42:36.972Z,43.64
2023-01-15T21:45:05.354Z,44.55
2023-01-15T21:47:32.702Z,45.02
2023-01-15T21:50:00.204Z,44.19
2023-01-15T21:52:29.380Z,44.67
2023-01-15T21:54:56.656Z,45.11
2023-01-15T21:57:23.835Z,44.74
2023-01-15T21:59:51.456Z,44.34
2023-01-15T22:02:20.138Z,44.28
2023-01-15T22:04:48.529Z,44.15
2023-01-15T22:07:16.352Z,44.22
2023-01-15T22:09:43.601Z,43.97
2023-01-15T22:12:14.074Z,43.86
2023-01-15T22:14:41.219Z,43.59
2023-01-15T22:17:10.259Z,43.75
2023-01-15T22:19:37.964Z,43.53
2023-01-15T22:22:08.371Z,44.17
2023-01-15T22:24:36.027Z,43.78
2023-01-15T22:27:06.561Z,43.38
2023-01-15T22:29:38.184Z,43.85
2023-01-15T22:32:06.097Z,43.73
2023-01-15T22:34:34.862Z,43.19
2023-01-15T22:37:02.096Z,42.58
2023-01-15T22:39:30.316Z,42.45
2023-01-15T22:42:16.017Z,43.01
2023-01-15T22:44:45.043Z,43.06
2023-01-15T22:47:12.634Z,42.81
2023-01-15T22:49:39.786Z,43.15
2023-01-15T22:52:07.492Z,43.45
2023-01-15T22:54:34.803Z,43.87
2023-01-15T22:57:02.064Z,43.67
2023-01-15T22:59:29.601Z,44.27
2023-01-15T23:01:56.868Z,43.97
2023-01-15T23:04:24.563Z,43.94
2023-01-15T23:06:52.734Z,44.22
2023-01-15T23:09:20.582Z,43.93
2023-01-15T23:11:47.753Z,44.43
2023-01-15T23:14:15.779Z,44.17
2023-01-15T23:16:43.250Z,44.14
2023-01-15T23:19:10.500Z,44.19
2023-01-15T23:21:38.489Z,44.15
2023-01-15T23:24:05.762Z,45.33
2023-01-15T23:26:33.622Z,46.73
2023-01-15T23:29:01.076Z,44.81
2023-01-15T23:31:28.376Z,46.27
2023-01-15T23:33:55.560Z,45.97
2023-01-15T23:36:23.312Z,46.08
2023-01-15T23:38:50.437Z,45.45
2023-01-15T23:41:18.671Z,46.55
2023-01-15T23:44:04.990Z,46.12
2023-01-15T23:46:35.513Z,47.13
2023-01-15T23:49:04.832Z,47.31
2023-01-15T23:51:33.134Z,46.16
2023-01-15T23:54:00.666Z,45.36
2023-01-15T23:56:28.658Z,45.51
2023-01-15T23:58:56.233Z,45.48
